Terminal Aerodrome Forecast
Issued by NWS Binghamton, NY

Home | Current Version | Previous Version | Text Only | Print | Product List | Glossary On
Versions: 1 2 3 4 5 6 7 8 9 10 11 12 13 14 15 16 17 18
000
FTUS41 KBGM 232333
TAFSYR
TAF
KSYR 232333Z 2400/2424 25012G22KT P6SM BKN035
     FM240300 26015G25KT P6SM OVC025
     FM240600 27015G25KT 3SM -SHSN SCT012 OVC025
      TEMPO 2407/2411 2SM -SHSN OVC012
     FM241500 29010G20KT P6SM -SHSN BKN025=

USA.gov is the U.S. government's official web portal to all federal, state and local government web resources and services.